• Join FlightAware (Why Join?)
  • Login
  • US Flag 
02:56AM EDT


 

Airport Tracker/Info


-or-


 

Live Flight TrackerFlight Track Log ✈ C-GMNJ ✈ 08-Jul-2013 ✈ CYAM - CYOO

Flight Track Log - Related Links

Times and Time Zones

All times are in EDT time to prevent confusion due to time zone crossing. See the C-GMNJ flight status page for this flight to view local times or setup timezone preferences in your user account.

Time Position Orientation Groundspeed Altitude Reporting Facility
EDT Latitude Longitude Course Direction KTS MPH feet Rate Location/Type
01:25PM 46.4667 -84.4667 145° Southeast 100 115 1,300  Level Toronto Center
01:26PM 46.4500 -84.4500 145° Southeast 140 161 1,700 480 Climbing Toronto Center
01:27PM 46.4167 -84.4000 134° Southeast 150 173 2,300 480 Climbing Toronto Center
01:28PM 46.3833 -84.3500 134° Southeast 150 173 2,700 420 Climbing Toronto Center
01:29PM 46.3667 -84.3000 116° Southeast 150 173 3,200 480 Climbing Toronto Center
01:30PM 46.3333 -84.2500 134° Southeast 150 173 3,700 480 Climbing Toronto Center
01:31PM 46.3333 -84.2000 90° East 160 184 4,200 480 Climbing Toronto Center
01:32PM 46.3000 -84.1500 134° Southeast 150 173 4,700 480 Climbing Toronto Center
01:33PM 46.2833 -84.1000 116° Southeast 150 173 5,200 480 Climbing Toronto Center
01:34PM 46.2500 -84.0500 134° Southeast 150 173 5,700 420 Climbing Toronto Center
01:35PM 46.2167 -84.0000 134° Southeast 150 173 6,100 420 Climbing Toronto Center
01:36PM 46.2000 -83.9500 116° Southeast 150 173 6,600 420 Climbing Toronto Center
01:37PM 46.1667 -83.9000 134° Southeast 150 173 7,000 240 Climbing Toronto Center
01:38PM 46.1500 -83.8500 116° Southeast 150 173 7,100  Climbing Toronto Center
01:39PM 46.1167 -83.8000 134° Southeast 160 184 7,100  Level Toronto Center
01:40PM 46.1167 -83.7500 90° East 160 184 7,100  Level Toronto Center
01:41PM 46.0833 -83.7000 134° Southeast 160 184 7,100  Level Toronto Center
01:42PM 46.0500 -83.6500 134° Southeast 160 184 7,100  Level Toronto Center
01:43PM 46.0333 -83.6000 116° Southeast 160 184 7,100  Level Toronto Center
01:44PM 46.0000 -83.5167 120° Southeast 170 196 7,100  Level Toronto Center
01:45PM 45.9667 -83.4667 134° Southeast 170 196 7,100  Level Toronto Center
01:46PM 45.9333 -83.4167 134° Southeast 170 196 7,100  Level Toronto Center
01:47PM 45.9167 -83.3667 116° Southeast 160 184 7,100  Level Toronto Center
01:48PM 45.8833 -83.3167 134° Southeast 160 184 7,100  Level Toronto Center
01:50PM 45.8500 -83.2000 112° Southeast 160 184 7,100  Level Toronto Center
01:51PM 45.8167 -83.1500 134° Southeast 160 184 7,100  Level Toronto Center
01:54PM 45.7333 -83.0167 132° Southeast 160 184 7,100  Level Toronto Center
01:55PM 45.7167 -82.9500 110° East 170 196 7,100  Level Toronto Center
01:56PM 45.6833 -82.9000 134° Southeast 170 196 7,100  Level Toronto Center
01:57PM 45.6500 -82.8500 134° Southeast 170 196 7,100  Level Toronto Center
01:58PM 45.6167 -82.8000 134° Southeast 170 196 7,100  Level Toronto Center
01:59PM 45.6000 -82.7333 110° East 170 196 7,100  Level Toronto Center
02:02PM 45.5582 -82.6528 127° Southeast  Level FlightAware Approximate
02:09PM 45.3583 -82.2701 127° Southeast  Level FlightAware Approximate
02:12PM 45.2727 -82.1120 128° Southeast  Level FlightAware Approximate
02:13PM 45.2441 -82.0593 128° Southeast  Level FlightAware Approximate
02:14PM 45.2155 -82.0068 128° Southeast  Level FlightAware Approximate
02:15PM 45.1869 -81.9543 128° Southeast  Level FlightAware Approximate
02:16PM 45.1582 -81.9018 128° Southeast  Level FlightAware Approximate
02:17PM 45.1296 -81.8494 128° Southeast  Level FlightAware Approximate
02:18PM 45.1008 -81.7971 128° Southeast  Level FlightAware Approximate
02:19PM 45.0721 -81.7448 128° Southeast  Level FlightAware Approximate
02:20PM 45.0434 -81.6925 128° Southeast  Level FlightAware Approximate
02:21PM 45.0146 -81.6403 128° Southeast  Level FlightAware Approximate
02:22PM 44.9858 -81.5882 128° Southeast  Level FlightAware Approximate
02:23PM 44.9570 -81.5361 128° Southeast  Level FlightAware Approximate
02:24PM 44.9282 -81.4840 128° Southeast  Level FlightAware Approximate
02:25PM 44.8992 -81.4320 128° Southeast  Level FlightAware Approximate
02:26PM 44.8704 -81.3800 128° Southeast  Level FlightAware Approximate
02:27PM 44.8415 -81.3280 128° Southeast  Level FlightAware Approximate
02:28PM 44.8126 -81.2762 128° Southeast  Level FlightAware Approximate
02:29PM 44.7837 -81.2243 128° Southeast  Level FlightAware Approximate
02:30PM 44.7548 -81.1725 128° Southeast  Level FlightAware Approximate
02:31PM 44.7258 -81.1208 128° Southeast  Level FlightAware Approximate
02:32PM 44.6968 -81.0691 128° Southeast  Level FlightAware Approximate
02:33PM 44.6678 -81.0175 128° Southeast  Level FlightAware Approximate
02:33PM 44.5667 -80.8333 115° Southeast 190 219 7,100  Level Toronto Center
02:34PM 44.6388 -80.9660 128° Southeast  Level FlightAware Approximate
02:34PM 44.5333 -80.7500 119° Southeast 180 207 7,100  Level Toronto Center
02:35PM 44.6097 -80.9144 128° Southeast  Level FlightAware Approximate
02:35PM 44.5333 -80.7167 90° East 180 207 7,100  Level Toronto Center
02:36PM 44.5901 -80.8544 115° Southeast  Level Estimated
02:36PM 44.5333 -80.6333 90° East 190 219 7,100  Level Toronto Center
02:37PM 44.5703 -80.7944 115° Southeast  Level Estimated
02:37PM 44.5333 -80.5667 90° East 180 207 7,100  Level Toronto Center
02:38PM 44.5506 -80.7344 115° Southeast  Level Estimated
02:38PM 44.5333 -80.4667 90° East 180 207 7,100  Level Toronto Center
02:39PM 44.5308 -80.6745 115° Southeast  Level Estimated
02:39PM 44.5333 -80.4333 90° East 180 207 7,100  Level Toronto Center
02:40PM 44.5500 -80.3500 74° East 180 207 7,100  Level Toronto Center
02:41PM 44.5500 -80.2667 90° East 180 207 7,100  Level Toronto Center
02:42PM 44.5500 -80.2167 90° East 180 207 7,100  Level Toronto Center
02:43PM 44.5500 -80.1167 90° East 180 207 7,100  Level Toronto Center
02:44PM 44.5500 -80.0500 90° East 180 207 7,100  Level Toronto Center
02:45PM 44.5667 -79.9833 71° East 180 207 7,100  Level Toronto Center
02:46PM 44.5667 -79.9167 90° East 180 207 7,100  Level Toronto Center
02:47PM 44.5667 -79.8667 90° East 180 207 7,100  Level Toronto Center
02:48PM 44.5667 -79.7667 90° East 180 207 7,100  Level Toronto Center
02:49PM 44.5667 -79.7333 90° East 180 207 7,100  Level Toronto Center
02:50PM 44.5667 -79.6500 90° East 170 196 7,100  Level Toronto Center
02:51PM 44.5333 -79.6167 145° Southeast 180 207 7,100  Level Toronto Center
02:52PM 44.5000 -79.5333 119° Southeast 180 207 7,100  Level Toronto Center
02:53PM 44.4667 -79.5000 144° Southeast 180 207 7,100  Level Toronto Center
02:54PM 44.4333 -79.4500 133° Southeast 180 207 7,100  Level Toronto Center
02:55PM 44.4000 -79.4000 133° Southeast 170 196 7,100  Level Toronto Center
02:56PM 44.3667 -79.3500 133° Southeast 170 196 7,100  Level Toronto Center
02:57PM 44.3333 -79.3000 133° Southeast 170 196 7,100  Level Toronto Center
02:58PM 44.3000 -79.2667 144° Southeast 170 196 7,100 -300 Level Toronto Center
02:59PM 44.2667 -79.2167 133° Southeast 170 196 6,600 -600 Descending Toronto Center
03:00PM 44.2333 -79.1667 133° Southeast 170 196 6,000 -660 Descending Toronto Center
03:01PM 44.2167 -79.1000 109° East 170 196 5,300 -780 Descending Toronto Center
03:02PM 44.2000 -79.0500 115° Southeast 170 196 4,500 -600 Descending Toronto Center
03:03PM 44.1833 -79.0000 115° Southeast 150 173 4,100 -300 Descending Toronto Center
03:04PM 44.1667 -78.9667 125° Southeast 130 150 3,900 -360 Descending Toronto Center
03:05PM 44.1500 -78.9167 115° Southeast 120 138 3,400 -360 Descending Toronto Center
03:06PM 44.1333 -78.8667 115° Southeast 120 138 3,200 -300 Descending Toronto Center
03:07PM 44.1167 -78.8167 115° Southeast 120 138 2,900 -360 Descending Toronto Center
03:08PM 44.1000 -78.8000 144° Southeast 100 115 2,500 -300 Descending Toronto Center
03:09PM 44.0833 -78.7500 115° Southeast 100 115 2,400 -60 Descending Toronto Center
03:10PM 44.0667 -78.7333 144° Southeast 100 115 2,400 -120 Level Toronto Center
03:11PM 44.0500 -78.7500 216° Southwest 90 104 2,200 -120 Descending Toronto Center
03:12PM 44.0167 -78.7667 200° South 100 115 2,200  Level Toronto Center
03:13PM 44.0000 -78.8000 235° Southwest 90 104 2,200 -60 Level Toronto Center
03:14PM 43.9833 -78.8000 180° South 90 104 2,100 -360 Descending Toronto Center
03:15PM 43.9667 -78.8167 216° Southwest 90 104 1,500 -600 Descending Toronto Center
03:17PM 43.9324 -78.8778 144° Southeast  Level Estimated